sensor_id;sensor_type;location;lat;lon;timestamp;P1;durP1;ratioP1;P2;durP2;ratioP2
17658;SDS011;8948;51.534;8.262;2022-09-11T00:02:07;48.17;;;31.20;;
17658;SDS011;8948;51.534;8.262;2022-09-11T00:07:07;45.08;;;31.55;;
17658;SDS011;8948;51.534;8.262;2022-09-11T00:12:08;44.40;;;30.27;;
17658;SDS011;8948;51.534;8.262;2022-09-11T00:17:09;49.03;;;32.65;;
17658;SDS011;8948;51.534;8.262;2022-09-11T00:22:09;47.47;;;32.33;;
17658;SDS011;8948;51.534;8.262;2022-09-11T00:27:11;53.45;;;33.53;;
17658;SDS011;8948;51.534;8.262;2022-09-11T00:32:11;51.22;;;34.35;;
17658;SDS011;8948;51.534;8.262;2022-09-11T00:37:12;59.67;;;33.72;;
17658;SDS011;8948;51.534;8.262;2022-09-11T00:42:12;53.25;;;35.10;;
17658;SDS011;8948;51.534;8.262;2022-09-11T00:47:13;54.63;;;36.60;;
17658;SDS011;8948;51.534;8.262;2022-09-11T00:52:18;77.13;;;42.88;;
17658;SDS011;8948;51.534;8.262;2022-09-11T00:57:23;69.00;;;40.40;;
17658;SDS011;8948;51.534;8.262;2022-09-11T01:02:27;69.68;;;41.22;;
17658;SDS011;8948;51.534;8.262;2022-09-11T01:07:30;74.65;;;43.72;;
17658;SDS011;8948;51.534;8.262;2022-09-11T01:18:08;78.32;;;46.42;;
17658;SDS011;8948;51.534;8.262;2022-09-11T01:34:21;94.47;;;48.60;;
17658;SDS011;8948;51.534;8.262;2022-09-11T01:39:29;93.45;;;48.83;;
17658;SDS011;8948;51.534;8.262;2022-09-11T01:44:38;87.38;;;47.53;;
17658;SDS011;8948;51.534;8.262;2022-09-11T01:49:45;95.10;;;48.72;;
17658;SDS011;8948;51.534;8.262;2022-09-11T01:55:04;97.70;;;50.03;;
17658;SDS011;8948;51.534;8.262;2022-09-11T02:00:11;84.10;;;48.08;;
17658;SDS011;8948;51.534;8.262;2022-09-11T02:05:17;96.25;;;50.33;;
17658;SDS011;8948;51.534;8.262;2022-09-11T02:10:27;96.38;;;52.25;;
17658;SDS011;8948;51.534;8.262;2022-09-11T02:15:43;107.20;;;53.75;;
17658;SDS011;8948;51.534;8.262;2022-09-11T02:20:47;100.38;;;53.35;;
17658;SDS011;8948;51.534;8.262;2022-09-11T02:25:48;109.50;;;57.42;;
17658;SDS011;8948;51.534;8.262;2022-09-11T02:30:49;106.80;;;54.78;;
17658;SDS011;8948;51.534;8.262;2022-09-11T02:35:50;100.32;;;53.95;;
17658;SDS011;8948;51.534;8.262;2022-09-11T02:41:10;111.72;;;55.47;;
17658;SDS011;8948;51.534;8.262;2022-09-11T02:46:27;89.82;;;51.08;;
17658;SDS011;8948;51.534;8.262;2022-09-11T02:56:45;119.50;;;59.03;;
17658;SDS011;8948;51.534;8.262;2022-09-11T03:01:54;120.03;;;57.55;;
17658;SDS011;8948;51.534;8.262;2022-09-11T03:07:00;115.47;;;56.65;;
17658;SDS011;8948;51.534;8.262;2022-09-11T03:12:01;112.68;;;57.25;;
17658;SDS011;8948;51.534;8.262;2022-09-11T03:17:03;106.38;;;54.97;;
17658;SDS011;8948;51.534;8.262;2022-09-11T03:22:04;99.97;;;53.17;;
17658;SDS011;8948;51.534;8.262;2022-09-11T03:27:05;108.40;;;55.42;;
17658;SDS011;8948;51.534;8.262;2022-09-11T03:32:05;50.63;;;33.10;;
17658;SDS011;8948;51.534;8.262;2022-09-11T03:37:06;34.70;;;23.10;;
17658;SDS011;8948;51.534;8.262;2022-09-11T03:42:06;44.78;;;31.40;;
17658;SDS011;8948;51.534;8.262;2022-09-11T03:47:11;47.08;;;32.60;;
17658;SDS011;8948;51.534;8.262;2022-09-11T03:52:12;63.38;;;42.20;;
17658;SDS011;8948;51.534;8.262;2022-09-11T03:57:13;58.33;;;37.00;;
17658;SDS011;8948;51.534;8.262;2022-09-11T04:02:14;55.60;;;36.53;;
17658;SDS011;8948;51.534;8.262;2022-09-11T04:07:14;55.75;;;35.80;;
17658;SDS011;8948;51.534;8.262;2022-09-11T04:12:15;70.95;;;42.10;;
17658;SDS011;8948;51.534;8.262;2022-09-11T04:17:15;77.75;;;46.30;;
17658;SDS011;8948;51.534;8.262;2022-09-11T04:22:17;68.75;;;42.05;;
17658;SDS011;8948;51.534;8.262;2022-09-11T04:27:17;100.30;;;53.35;;
17658;SDS011;8948;51.534;8.262;2022-09-11T04:32:18;121.50;;;56.83;;
17658;SDS011;8948;51.534;8.262;2022-09-11T04:37:18;127.18;;;56.33;;
17658;SDS011;8948;51.534;8.262;2022-09-11T04:42:20;136.27;;;59.63;;
17658;SDS011;8948;51.534;8.262;2022-09-11T04:47:20;112.97;;;54.90;;
17658;SDS011;8948;51.534;8.262;2022-09-11T04:52:21;113.43;;;52.35;;
17658;SDS011;8948;51.534;8.262;2022-09-11T04:57:21;129.93;;;57.33;;
17658;SDS011;8948;51.534;8.262;2022-09-11T05:02:22;143.90;;;60.35;;
17658;SDS011;8948;51.534;8.262;2022-09-11T05:07:23;162.43;;;60.67;;
17658;SDS011;8948;51.534;8.262;2022-09-11T05:12:24;124.43;;;56.47;;
17658;SDS011;8948;51.534;8.262;2022-09-11T05:17:25;170.70;;;62.10;;
17658;SDS011;8948;51.534;8.262;2022-09-11T05:22:25;155.10;;;60.08;;
17658;SDS011;8948;51.534;8.262;2022-09-11T05:27:26;160.85;;;62.58;;
17658;SDS011;8948;51.534;8.262;2022-09-11T05:32:27;153.80;;;62.58;;
17658;SDS011;8948;51.534;8.262;2022-09-11T05:37:27;172.38;;;63.25;;
17658;SDS011;8948;51.534;8.262;2022-09-11T05:42:28;207.95;;;66.63;;
17658;SDS011;8948;51.534;8.262;2022-09-11T05:47:28;183.50;;;64.57;;
17658;SDS011;8948;51.534;8.262;2022-09-11T05:52:29;199.23;;;59.85;;
17658;SDS011;8948;51.534;8.262;2022-09-11T05:57:29;172.88;;;62.78;;
17658;SDS011;8948;51.534;8.262;2022-09-11T06:02:30;177.35;;;63.83;;
17658;SDS011;8948;51.534;8.262;2022-09-11T06:07:30;357.40;;;63.28;;
17658;SDS011;8948;51.534;8.262;2022-09-11T06:12:31;226.35;;;54.65;;
17658;SDS011;8948;51.534;8.262;2022-09-11T06:17:32;308.70;;;58.90;;
17658;SDS011;8948;51.534;8.262;2022-09-11T06:22:33;75.50;;;39.92;;
17658;SDS011;8948;51.534;8.262;2022-09-11T06:27:35;193.68;;;55.20;;
17658;SDS011;8948;51.534;8.262;2022-09-11T06:32:35;260.55;;;55.03;;
17658;SDS011;8948;51.534;8.262;2022-09-11T06:37:36;146.63;;;53.08;;
17658;SDS011;8948;51.534;8.262;2022-09-11T06:42:36;215.88;;;59.60;;
17658;SDS011;8948;51.534;8.262;2022-09-11T06:47:37;114.70;;;49.55;;
17658;SDS011;8948;51.534;8.262;2022-09-11T06:52:38;137.00;;;53.65;;
17658;SDS011;8948;51.534;8.262;2022-09-11T06:57:39;144.98;;;55.88;;
17658;SDS011;8948;51.534;8.262;2022-09-11T07:02:40;176.52;;;60.15;;
17658;SDS011;8948;51.534;8.262;2022-09-11T07:07:41;258.58;;;61.42;;
17658;SDS011;8948;51.534;8.262;2022-09-11T07:12:43;156.15;;;57.67;;
17658;SDS011;8948;51.534;8.262;2022-09-11T07:17:43;170.50;;;57.78;;
17658;SDS011;8948;51.534;8.262;2022-09-11T07:22:44;357.17;;;58.55;;
17658;SDS011;8948;51.534;8.262;2022-09-11T07:27:45;665.47;;;65.03;;
17658;SDS011;8948;51.534;8.262;2022-09-11T07:32:46;399.08;;;57.17;;
17658;SDS011;8948;51.534;8.262;2022-09-11T07:37:48;135.05;;;49.78;;
17658;SDS011;8948;51.534;8.262;2022-09-11T07:42:49;137.68;;;52.63;;
17658;SDS011;8948;51.534;8.262;2022-09-11T07:47:50;155.75;;;44.70;;
17658;SDS011;8948;51.534;8.262;2022-09-11T07:52:50;70.47;;;36.67;;
17658;SDS011;8948;51.534;8.262;2022-09-11T07:57:51;152.15;;;40.97;;
17658;SDS011;8948;51.534;8.262;2022-09-11T08:02:53;416.75;;;49.67;;
17658;SDS011;8948;51.534;8.262;2022-09-11T08:07:55;206.52;;;41.92;;
17658;SDS011;8948;51.534;8.262;2022-09-11T08:12:56;103.05;;;37.05;;
17658;SDS011;8948;51.534;8.262;2022-09-11T08:17:56;317.13;;;48.55;;
17658;SDS011;8948;51.534;8.262;2022-09-11T08:22:57;94.93;;;48.13;;
17658;SDS011;8948;51.534;8.262;2022-09-11T08:27:57;82.90;;;44.33;;
17658;SDS011;8948;51.534;8.262;2022-09-11T08:32:58;88.43;;;43.47;;
17658;SDS011;8948;51.534;8.262;2022-09-11T08:38:00;81.63;;;44.25;;
17658;SDS011;8948;51.534;8.262;2022-09-11T08:43:02;73.60;;;40.25;;
17658;SDS011;8948;51.534;8.262;2022-09-11T08:48:03;80.22;;;41.97;;
17658;SDS011;8948;51.534;8.262;2022-09-11T08:53:07;74.80;;;38.30;;
17658;SDS011;8948;51.534;8.262;2022-09-11T08:58:26;72.03;;;37.33;;
17658;SDS011;8948;51.534;8.262;2022-09-11T09:03:51;70.95;;;37.00;;
17658;SDS011;8948;51.534;8.262;2022-09-11T09:09:01;62.35;;;35.15;;
17658;SDS011;8948;51.534;8.262;2022-09-11T09:19:55;62.58;;;33.65;;
17658;SDS011;8948;51.534;8.262;2022-09-11T09:24:57;55.30;;;32.00;;
17658;SDS011;8948;51.534;8.262;2022-09-11T09:30:03;51.15;;;31.75;;
17658;SDS011;8948;51.534;8.262;2022-09-11T09:35:10;59.65;;;32.38;;
17658;SDS011;8948;51.534;8.262;2022-09-11T09:40:16;48.95;;;29.88;;
17658;SDS011;8948;51.534;8.262;2022-09-11T09:50:44;52.67;;;29.85;;
17658;SDS011;8948;51.534;8.262;2022-09-11T09:55:46;54.72;;;31.17;;
17658;SDS011;8948;51.534;8.262;2022-09-11T10:00:48;60.15;;;30.15;;
17658;SDS011;8948;51.534;8.262;2022-09-11T10:05:50;59.88;;;29.35;;
17658;SDS011;8948;51.534;8.262;2022-09-11T10:10:57;72.32;;;30.83;;
17658;SDS011;8948;51.534;8.262;2022-09-11T10:16:01;52.80;;;29.52;;
17658;SDS011;8948;51.534;8.262;2022-09-11T10:26:15;46.78;;;26.65;;
17658;SDS011;8948;51.534;8.262;2022-09-11T10:31:18;45.63;;;25.15;;
17658;SDS011;8948;51.534;8.262;2022-09-11T10:36:22;65.68;;;25.70;;
17658;SDS011;8948;51.534;8.262;2022-09-11T10:41:27;39.50;;;23.30;;
17658;SDS011;8948;51.534;8.262;2022-09-11T10:46:34;57.75;;;25.95;;
17658;SDS011;8948;51.534;8.262;2022-09-11T10:51:37;37.28;;;23.65;;
17658;SDS011;8948;51.534;8.262;2022-09-11T11:01:56;43.60;;;26.10;;
17658;SDS011;8948;51.534;8.262;2022-09-11T11:07:02;45.78;;;27.58;;
17658;SDS011;8948;51.534;8.262;2022-09-11T11:12:26;42.08;;;27.45;;
17658;SDS011;8948;51.534;8.262;2022-09-11T11:28:33;39.10;;;25.33;;
17658;SDS011;8948;51.534;8.262;2022-09-11T11:34:05;37.05;;;25.25;;
17658;SDS011;8948;51.534;8.262;2022-09-11T11:39:15;39.25;;;26.08;;
17658;SDS011;8948;51.534;8.262;2022-09-11T11:44:37;40.20;;;25.00;;
17658;SDS011;8948;51.534;8.262;2022-09-11T11:50:04;45.67;;;27.05;;
17658;SDS011;8948;51.534;8.262;2022-09-11T11:55:17;41.92;;;26.23;;
17658;SDS011;8948;51.534;8.262;2022-09-11T12:00:24;40.55;;;25.52;;
17658;SDS011;8948;51.534;8.262;2022-09-11T12:05:29;45.22;;;26.75;;
17658;SDS011;8948;51.534;8.262;2022-09-11T12:10:35;41.88;;;26.33;;
17658;SDS011;8948;51.534;8.262;2022-09-11T12:15:37;38.72;;;24.48;;
17658;SDS011;8948;51.534;8.262;2022-09-11T12:20:38;34.00;;;22.70;;
17658;SDS011;8948;51.534;8.262;2022-09-11T12:35:58;35.42;;;21.33;;
17658;SDS011;8948;51.534;8.262;2022-09-11T12:41:00;29.25;;;18.88;;
17658;SDS011;8948;51.534;8.262;2022-09-11T12:47:03;31.77;;;19.95;;
17658;SDS011;8948;51.534;8.262;2022-09-11T12:56:31;30.23;;;19.42;;
17658;SDS011;8948;51.534;8.262;2022-09-11T13:01:36;26.80;;;18.92;;
17658;SDS011;8948;51.534;8.262;2022-09-11T13:11:44;25.23;;;15.57;;
17658;SDS011;8948;51.534;8.262;2022-09-11T13:16:48;20.98;;;14.45;;
17658;SDS011;8948;51.534;8.262;2022-09-11T13:21:49;20.38;;;14.43;;
17658;SDS011;8948;51.534;8.262;2022-09-11T13:27:16;19.33;;;13.35;;
17658;SDS011;8948;51.534;8.262;2022-09-11T13:32:23;19.80;;;13.27;;
17658;SDS011;8948;51.534;8.262;2022-09-11T13:42:42;15.75;;;11.25;;
17658;SDS011;8948;51.534;8.262;2022-09-11T13:47:43;17.33;;;11.65;;
17658;SDS011;8948;51.534;8.262;2022-09-11T13:52:43;16.73;;;9.63;;
17658;SDS011;8948;51.534;8.262;2022-09-11T13:57:52;15.25;;;10.50;;
17658;SDS011;8948;51.534;8.262;2022-09-11T14:02:55;15.43;;;9.63;;
17658;SDS011;8948;51.534;8.262;2022-09-11T14:08:02;12.95;;;9.45;;
17658;SDS011;8948;51.534;8.262;2022-09-11T14:18:47;17.35;;;10.18;;
17658;SDS011;8948;51.534;8.262;2022-09-11T14:23:55;13.95;;;9.75;;
17658;SDS011;8948;51.534;8.262;2022-09-11T14:28:59;12.93;;;8.73;;
17658;SDS011;8948;51.534;8.262;2022-09-11T14:34:10;14.25;;;9.75;;
17658;SDS011;8948;51.534;8.262;2022-09-11T14:44:43;8.48;;;6.95;;
17658;SDS011;8948;51.534;8.262;2022-09-11T14:49:44;14.05;;;8.65;;
17658;SDS011;8948;51.534;8.262;2022-09-11T14:54:45;10.82;;;7.70;;
17658;SDS011;8948;51.534;8.262;2022-09-11T14:59:46;10.88;;;7.78;;
17658;SDS011;8948;51.534;8.262;2022-09-11T15:04:47;10.50;;;7.22;;
17658;SDS011;8948;51.534;8.262;2022-09-11T15:09:50;10.93;;;6.80;;
17658;SDS011;8948;51.534;8.262;2022-09-11T15:14:51;9.77;;;6.90;;
17658;SDS011;8948;51.534;8.262;2022-09-11T15:19:52;10.05;;;7.00;;
17658;SDS011;8948;51.534;8.262;2022-09-11T15:24:52;8.65;;;6.15;;
17658;SDS011;8948;51.534;8.262;2022-09-11T15:29:55;8.15;;;5.85;;
17658;SDS011;8948;51.534;8.262;2022-09-11T15:34:56;10.07;;;6.80;;
17658;SDS011;8948;51.534;8.262;2022-09-11T15:39:56;8.52;;;5.82;;
17658;SDS011;8948;51.534;8.262;2022-09-11T15:44:57;9.00;;;6.30;;
17658;SDS011;8948;51.534;8.262;2022-09-11T15:49:58;9.43;;;6.57;;
17658;SDS011;8948;51.534;8.262;2022-09-11T15:54:59;5.72;;;5.07;;
17658;SDS011;8948;51.534;8.262;2022-09-11T16:00:00;6.13;;;5.15;;
17658;SDS011;8948;51.534;8.262;2022-09-11T16:05:01;8.77;;;6.03;;
17658;SDS011;8948;51.534;8.262;2022-09-11T16:10:02;6.50;;;5.00;;
17658;SDS011;8948;51.534;8.262;2022-09-11T16:15:03;7.38;;;4.95;;
17658;SDS011;8948;51.534;8.262;2022-09-11T16:20:04;8.88;;;6.05;;
17658;SDS011;8948;51.534;8.262;2022-09-11T16:25:05;8.40;;;6.07;;
17658;SDS011;8948;51.534;8.262;2022-09-11T16:30:06;8.23;;;6.00;;
17658;SDS011;8948;51.534;8.262;2022-09-11T16:35:07;8.52;;;6.25;;
17658;SDS011;8948;51.534;8.262;2022-09-11T16:40:12;9.60;;;6.78;;
17658;SDS011;8948;51.534;8.262;2022-09-11T16:45:12;8.60;;;6.15;;
17658;SDS011;8948;51.534;8.262;2022-09-11T16:50:13;8.38;;;6.55;;
17658;SDS011;8948;51.534;8.262;2022-09-11T16:55:13;9.23;;;5.97;;
17658;SDS011;8948;51.534;8.262;2022-09-11T17:00:14;10.00;;;6.22;;
17658;SDS011;8948;51.534;8.262;2022-09-11T17:05:15;8.43;;;5.82;;
17658;SDS011;8948;51.534;8.262;2022-09-11T17:10:16;9.20;;;6.00;;
17658;SDS011;8948;51.534;8.262;2022-09-11T17:15:17;7.15;;;5.57;;
17658;SDS011;8948;51.534;8.262;2022-09-11T17:20:18;11.65;;;5.55;;
17658;SDS011;8948;51.534;8.262;2022-09-11T17:25:19;8.68;;;5.75;;
17658;SDS011;8948;51.534;8.262;2022-09-11T17:30:19;7.60;;;6.18;;
17658;SDS011;8948;51.534;8.262;2022-09-11T17:35:20;11.38;;;5.63;;
17658;SDS011;8948;51.534;8.262;2022-09-11T17:40:21;9.20;;;5.45;;
17658;SDS011;8948;51.534;8.262;2022-09-11T17:45:21;10.82;;;5.70;;
17658;SDS011;8948;51.534;8.262;2022-09-11T17:50:24;6.43;;;5.38;;
17658;SDS011;8948;51.534;8.262;2022-09-11T17:55:24;9.20;;;6.70;;
17658;SDS011;8948;51.534;8.262;2022-09-11T18:00:25;12.85;;;6.35;;
17658;SDS011;8948;51.534;8.262;2022-09-11T18:05:25;12.60;;;6.90;;
17658;SDS011;8948;51.534;8.262;2022-09-11T18:10:27;10.20;;;6.63;;
17658;SDS011;8948;51.534;8.262;2022-09-11T18:15:28;9.68;;;7.93;;
17658;SDS011;8948;51.534;8.262;2022-09-11T18:20:28;10.05;;;7.10;;
17658;SDS011;8948;51.534;8.262;2022-09-11T18:25:29;11.23;;;7.20;;
17658;SDS011;8948;51.534;8.262;2022-09-11T18:30:30;12.93;;;7.80;;
17658;SDS011;8948;51.534;8.262;2022-09-11T18:35:31;14.45;;;8.20;;
17658;SDS011;8948;51.534;8.262;2022-09-11T18:40:32;11.07;;;7.97;;
17658;SDS011;8948;51.534;8.262;2022-09-11T18:45:33;13.95;;;8.68;;
17658;SDS011;8948;51.534;8.262;2022-09-11T18:50:35;12.55;;;8.68;;
17658;SDS011;8948;51.534;8.262;2022-09-11T18:55:36;17.08;;;8.38;;
17658;SDS011;8948;51.534;8.262;2022-09-11T19:00:37;13.88;;;8.02;;
17658;SDS011;8948;51.534;8.262;2022-09-11T19:05:40;15.75;;;8.52;;
17658;SDS011;8948;51.534;8.262;2022-09-11T19:10:41;19.08;;;9.75;;
17658;SDS011;8948;51.534;8.262;2022-09-11T19:15:43;23.67;;;9.63;;
17658;SDS011;8948;51.534;8.262;2022-09-11T19:20:43;14.38;;;9.43;;
17658;SDS011;8948;51.534;8.262;2022-09-11T19:25:44;11.02;;;8.30;;
17658;SDS011;8948;51.534;8.262;2022-09-11T19:30:52;11.70;;;7.88;;
17658;SDS011;8948;51.534;8.262;2022-09-11T19:35:55;10.70;;;7.28;;
17658;SDS011;8948;51.534;8.262;2022-09-11T19:40:57;9.77;;;7.53;;
17658;SDS011;8948;51.534;8.262;2022-09-11T19:46:03;12.45;;;8.18;;
17658;SDS011;8948;51.534;8.262;2022-09-11T19:51:11;10.85;;;7.97;;
17658;SDS011;8948;51.534;8.262;2022-09-11T19:56:14;12.40;;;8.30;;
17658;SDS011;8948;51.534;8.262;2022-09-11T20:01:16;14.38;;;8.00;;
17658;SDS011;8948;51.534;8.262;2022-09-11T20:06:21;11.63;;;8.25;;
17658;SDS011;8948;51.534;8.262;2022-09-11T20:11:25;13.48;;;9.30;;
17658;SDS011;8948;51.534;8.262;2022-09-11T20:16:26;12.57;;;8.60;;
17658;SDS011;8948;51.534;8.262;2022-09-11T20:21:27;10.63;;;8.20;;
17658;SDS011;8948;51.534;8.262;2022-09-11T20:26:28;14.80;;;8.70;;
17658;SDS011;8948;51.534;8.262;2022-09-11T20:31:31;13.95;;;8.43;;
17658;SDS011;8948;51.534;8.262;2022-09-11T20:36:34;15.07;;;8.07;;
17658;SDS011;8948;51.534;8.262;2022-09-11T20:41:34;15.32;;;7.80;;
17658;SDS011;8948;51.534;8.262;2022-09-11T20:46:36;10.15;;;7.32;;
17658;SDS011;8948;51.534;8.262;2022-09-11T20:51:37;11.60;;;7.28;;
17658;SDS011;8948;51.534;8.262;2022-09-11T20:56:37;8.57;;;7.40;;
17658;SDS011;8948;51.534;8.262;2022-09-11T21:01:38;10.07;;;7.70;;
17658;SDS011;8948;51.534;8.262;2022-09-11T21:06:38;9.52;;;7.15;;
17658;SDS011;8948;51.534;8.262;2022-09-11T21:11:39;10.07;;;7.45;;
17658;SDS011;8948;51.534;8.262;2022-09-11T21:16:43;17.35;;;7.55;;
17658;SDS011;8948;51.534;8.262;2022-09-11T21:21:43;14.45;;;7.85;;
17658;SDS011;8948;51.534;8.262;2022-09-11T21:26:44;14.07;;;7.50;;
17658;SDS011;8948;51.534;8.262;2022-09-11T21:31:45;10.05;;;8.18;;
17658;SDS011;8948;51.534;8.262;2022-09-11T21:36:45;10.40;;;7.07;;
17658;SDS011;8948;51.534;8.262;2022-09-11T21:41:46;15.18;;;7.60;;
17658;SDS011;8948;51.534;8.262;2022-09-11T21:46:46;13.50;;;7.35;;
17658;SDS011;8948;51.534;8.262;2022-09-11T21:51:47;12.18;;;6.70;;
17658;SDS011;8948;51.534;8.262;2022-09-11T21:56:47;9.32;;;6.70;;
17658;SDS011;8948;51.534;8.262;2022-09-11T22:01:48;15.45;;;7.53;;
17658;SDS011;8948;51.534;8.262;2022-09-11T22:06:48;14.40;;;7.22;;
17658;SDS011;8948;51.534;8.262;2022-09-11T22:11:49;18.38;;;7.85;;
17658;SDS011;8948;51.534;8.262;2022-09-11T22:16:49;9.70;;;7.57;;
17658;SDS011;8948;51.534;8.262;2022-09-11T22:21:50;14.38;;;7.65;;
17658;SDS011;8948;51.534;8.262;2022-09-11T22:26:50;11.95;;;8.02;;
17658;SDS011;8948;51.534;8.262;2022-09-11T22:31:51;14.27;;;8.40;;
17658;SDS011;8948;51.534;8.262;2022-09-11T22:36:52;13.77;;;8.48;;
17658;SDS011;8948;51.534;8.262;2022-09-11T22:41:52;13.57;;;7.18;;
17658;SDS011;8948;51.534;8.262;2022-09-11T22:46:53;15.07;;;7.13;;
17658;SDS011;8948;51.534;8.262;2022-09-11T22:51:54;11.75;;;7.75;;
17658;SDS011;8948;51.534;8.262;2022-09-11T22:56:54;9.82;;;6.80;;
17658;SDS011;8948;51.534;8.262;2022-09-11T23:01:55;11.20;;;7.75;;
17658;SDS011;8948;51.534;8.262;2022-09-11T23:06:56;13.93;;;7.00;;
17658;SDS011;8948;51.534;8.262;2022-09-11T23:12:15;10.88;;;7.65;;
17658;SDS011;8948;51.534;8.262;2022-09-11T23:17:16;16.00;;;7.75;;
17658;SDS011;8948;51.534;8.262;2022-09-11T23:22:16;14.02;;;8.05;;
17658;SDS011;8948;51.534;8.262;2022-09-11T23:27:17;11.63;;;7.90;;
17658;SDS011;8948;51.534;8.262;2022-09-11T23:32:17;11.52;;;7.90;;
17658;SDS011;8948;51.534;8.262;2022-09-11T23:37:18;10.73;;;7.65;;
17658;SDS011;8948;51.534;8.262;2022-09-11T23:42:18;10.45;;;7.13;;
17658;SDS011;8948;51.534;8.262;2022-09-11T23:47:19;10.43;;;6.75;;
17658;SDS011;8948;51.534;8.262;2022-09-11T23:52:19;9.07;;;6.93;;
17658;SDS011;8948;51.534;8.262;2022-09-11T23:57:21;9.90;;;6.55;;
